Porto de Moz, Brazil
Current Conditions -  °F | °C
As of 6:00 PM on Monday 22 Dec 2014 (Local Time) from SBHT Reporting Station
Scattered Clouds Scattered Clouds  
Wind Chill: 90°   Ceiling: Unl
Heat Index: 102°   Visibility: 6mi
Dew Point: 77°   Wind: 2mph
Humidity: 66%   Direction: 150°SSE
Pressure: 29.74"   Gusts: NA
Location:  1.74°S, 52.24°W
Report Text: SBHT 222100Z 15002KT 9999 SCT020 32/25 Q1007
Loading
Personal Weather Stations






























Interactive Weather Map New forecast layout! Learn more

10-Day Weather Forecast

Advertisements
Track Severe Weather on mobile